Flight Track Log - Related Links

Times and Time Zones

All times are in EDT time to prevent confusion due to time zone crossing. See the DAL110 flight status page for this flight to view local times or setup timezone preferences in your user account.


Time Position Orientation Groundspeed Altitude Reporting Facility
EDT Latitude Longitude Course Direction KTS MPH feet Rate Location/Type
Thu 06:18:00 PM -13.7016 -67.1666 338° Northwest  Level Estimated
Thu 06:19:00 PM -13.6625 -67.1802 341° North  Level Estimated
Thu 06:20:00 PM -13.6234 -67.1939 341° North  Level Estimated
Thu 06:21:00 PM -13.5843 -67.2076 341° North  Level Estimated
Thu 06:22:00 PM -13.5453 -67.2213 341° North  Level Estimated
Thu 06:23:00 PM -13.5062 -67.2349 341° North  Level Estimated
Thu 06:24:00 PM -13.4671 -67.2486 341° North  Level Estimated
Thu 06:25:00 PM -13.4280 -67.2622 341° North  Level Estimated
Thu 06:26:00 PM -13.3889 -67.2759 341° North  Level Estimated
Thu 06:27:00 PM -13.3498 -67.2895 341° North  Level Estimated
Thu 06:28:00 PM -13.3107 -67.3031 341° North  Level Estimated
Thu 06:29:00 PM -13.2716 -67.3168 341° North  Level Estimated
Thu 06:30:00 PM -13.2325 -67.3304 341° North  Level Estimated
Thu 06:31:00 PM -13.1934 -67.3440 341° North  Level Estimated
Thu 06:32:00 PM -13.1543 -67.3577 341° North  Level Estimated
Thu 06:33:00 PM -13.1152 -67.3713 341° North  Level Estimated
Thu 06:34:00 PM -13.0761 -67.3849 341° North  Level Estimated
Thu 06:35:00 PM -13.0370 -67.3985 341° North  Level Estimated
Thu 06:36:00 PM -12.9979 -67.4121 341° North  Level Estimated
Thu 06:37:00 PM -12.9588 -67.4257 341° North  Level Estimated
Thu 06:38:00 PM -12.9197 -67.4393 341° North  Level Estimated
Thu 06:39:00 PM -12.8806 -67.4529 341° North  Level Estimated
Thu 06:40:00 PM -12.8415 -67.4665 341° North  Level Estimated
Thu 06:41:00 PM -12.8024 -67.4800 341° North  Level Estimated
Thu 06:42:00 PM -12.7633 -67.4936 341° North  Level Estimated
Thu 06:43:00 PM -12.7242 -67.5072 341° North  Level Estimated
Thu 06:44:00 PM -12.6851 -67.5208 341° North  Level Estimated
Thu 06:45:00 PM -12.6460 -67.5343 341° North  Level Estimated
Thu 06:46:00 PM -12.6069 -67.5479 341° North  Level Estimated
Thu 06:47:00 PM -12.5678 -67.5615 341° North  Level Estimated
Thu 06:48:00 PM -12.5287 -67.5750 341° North  Level Estimated
Thu 06:49:00 PM -12.4896 -67.5886 341° North  Level Estimated
Thu 06:50:00 PM -12.4505 -67.6021 341° North  Level Estimated
Thu 06:51:00 PM -12.4114 -67.6156 341° North  Level Estimated
Thu 06:52:00 PM -12.3723 -67.6292 341° North  Level Estimated
Thu 06:53:00 PM -12.3331 -67.6427 341° North  Level Estimated
Thu 06:54:00 PM -12.2940 -67.6562 341° North  Level Estimated
Thu 06:55:00 PM -12.2549 -67.6698 341° North  Level Estimated
Thu 06:56:00 PM -12.2158 -67.6833 341° North  Level Estimated
Thu 06:57:00 PM -12.1767 -67.6968 341° North  Level Estimated
Thu 06:58:00 PM -12.1376 -67.7103 341° North  Level Estimated
Thu 06:59:00 PM -12.0985 -67.7238 341° North  Level Estimated
Thu 07:00:00 PM -12.0594 -67.7373 341° North  Level Estimated
Thu 07:01:00 PM -12.0203 -67.7508 341° North  Level Estimated
Thu 07:02:00 PM -11.9811 -67.7643 341° North  Level Estimated
Thu 07:03:00 PM -11.9420 -67.7778 341° North  Level Estimated
Thu 07:04:00 PM -11.9029 -67.7913 341° North  Level Estimated
Thu 07:05:00 PM -11.8638 -67.8048 341° North  Level Estimated
Thu 07:06:00 PM -11.8246 -67.8183 341° North  Level Estimated
Thu 07:07:00 PM -11.7855 -67.8317 341° North  Level Estimated
Thu 07:08:00 PM -11.7464 -67.8452 341° North  Level Estimated
Thu 07:09:00 PM -11.7073 -67.8587 341° North  Level Estimated
Thu 07:10:00 PM -11.6682 -67.8722 341° North  Level Estimated
Thu 07:11:00 PM -11.6291 -67.8856 341° North  Level Estimated
Thu 07:12:00 PM -11.5899 -67.8991 341° North  Level Estimated
Thu 07:13:00 PM -11.5508 -67.9125 341° North  Level Estimated
Thu 07:14:00 PM -11.5117 -67.9260 341° North  Level Estimated
Thu 07:15:00 PM -11.4726 -67.9394 341° North  Level Estimated
Thu 07:16:00 PM -11.4334 -67.9529 341° North  Level Estimated
Thu 07:17:00 PM -11.3943 -67.9663 341° North  Level Estimated
Thu 07:18:00 PM -11.3552 -67.9798 341° North  Level Estimated
Thu 07:19:00 PM -11.3160 -67.9932 341° North  Level Estimated
Thu 07:20:00 PM -11.2769 -68.0066 341° North  Level Estimated
Thu 07:21:00 PM -11.2378 -68.0200 341° North  Level Estimated
Thu 07:22:00 PM -11.1987 -68.0334 341° North  Level Estimated
Thu 07:23:00 PM -11.1595 -68.0469 341° North  Level Estimated
Thu 07:24:00 PM -11.1204 -68.0603 341° North  Level Estimated
Thu 07:25:00 PM -11.0813 -68.0737 341° North  Level Estimated
Thu 07:26:00 PM -11.0421 -68.0871 341° North  Level Estimated
Thu 07:27:00 PM -11.0030 -68.1005 341° North  Level Estimated
Thu 07:28:00 PM -10.9639 -68.1139 341° North  Level Estimated
Thu 07:29:00 PM -10.9248 -68.1273 341° North  Level Estimated
Thu 07:30:00 PM -10.8856 -68.1407 341° North  Level Estimated
Thu 07:31:00 PM -10.8465 -68.1541 341° North  Level Estimated
Thu 07:32:00 PM -10.8074 -68.1675 341° North  Level Estimated
Thu 07:33:00 PM -10.7682 -68.1808 341° North  Level Estimated
Thu 07:34:00 PM -10.7291 -68.1942 341° North  Level Estimated
Thu 07:35:00 PM -10.6899 -68.2076 341° North  Level Estimated
Thu 07:36:00 PM -10.6508 -68.2210 341° North  Level Estimated
Thu 07:37:00 PM -10.6117 -68.2344 341° North  Level Estimated
Thu 07:38:00 PM -10.5725 -68.2477 341° North  Level Estimated

Login

Don't have an account? Register now (free) for customized features, flight alerts, and more!